Time;durP1;ratioP1;P1;durP2;ratioP2;P2;SDS_P1;SDS_P2;PMS_P1;PMS_P2;Temp;Humidity;BMP_temperature;BMP_pressure;BME280_temperature;BME280_humidity;BME280_pressure;Samples;Min_cycle;Max_cycle;Signal;HPM_P1;HPM_P2
2024/01/02 00:01:19;;;;;;;11.93;2.30;;;6.00;99.90;;;;;;4916855;29;20214;-50
2024/01/02 00:03:44;;;;;;;13.17;2.40;;;6.00;99.90;;;;;;4908691;29;20200;-52
2024/01/02 00:06:14;;;;;;;8.40;2.60;;;6.00;99.90;;;;;;4914902;29;20190;-50
2024/01/02 00:08:40;;;;;;;10.33;2.20;;;6.00;99.90;;;;;;4903950;29;20200;-50
2024/01/02 00:11:05;;;;;;;9.10;2.47;;;6.10;99.90;;;;;;4915288;29;20227;-50
2024/01/02 00:13:31;;;;;;;10.27;2.63;;;5.90;99.90;;;;;;4897544;29;20188;-51
2024/01/02 00:15:56;;;;;;;11.13;2.93;;;5.90;99.90;;;;;;4913445;29;20561;-53
2024/01/02 00:18:22;;;;;;;11.00;2.10;;;5.90;99.90;;;;;;4897980;29;20299;-50
2024/01/02 00:20:48;;;;;;;17.60;2.60;;;5.90;99.90;;;;;;4912190;29;20279;-49
2024/01/02 00:23:13;;;;;;;9.00;2.10;;;6.00;99.90;;;;;;4915508;29;20227;-49
2024/01/02 00:25:39;;;;;;;10.07;2.50;;;6.00;99.90;;;;;;4916472;29;20184;-53
2024/01/02 00:28:05;;;;;;;15.63;2.60;;;6.00;99.90;;;;;;4908641;29;20211;-52
2024/01/02 00:30:32;;;;;;;17.10;2.80;;;6.00;99.90;;;;;;4916489;29;20176;-50
2024/01/02 00:32:57;;;;;;;12.93;2.90;;;6.00;99.90;;;;;;4906662;29;20648;-49
2024/01/02 00:35:23;;;;;;;18.30;2.83;;;6.00;99.90;;;;;;4908676;29;20198;-52
2024/01/02 00:37:48;;;;;;;18.30;2.33;;;6.00;99.90;;;;;;4916231;29;20211;-50
2024/01/02 00:40:15;;;;;;;12.97;2.50;;;6.10;99.90;;;;;;4908516;29;21689;-48
2024/01/02 00:42:40;;;;;;;10.87;2.27;;;6.10;99.90;;;;;;4915518;29;20180;-54
2024/01/02 00:45:06;;;;;;;9.27;2.73;;;6.00;99.90;;;;;;4908340;29;20565;-52
2024/01/02 00:47:32;;;;;;;11.37;2.90;;;5.90;99.90;;;;;;4916285;29;20570;-49
2024/01/02 00:49:58;;;;;;;12.67;2.80;;;6.00;99.90;;;;;;4915081;29;20229;-54
2024/01/02 00:52:23;;;;;;;12.33;2.90;;;6.00;99.90;;;;;;4903002;29;20185;-54
2024/01/02 00:54:51;;;;;;;15.33;3.23;;;6.00;99.90;;;;;;4912196;29;20180;-54
2024/01/02 00:57:17;;;;;;;9.93;2.70;;;6.00;99.90;;;;;;4908253;29;20192;-49
2024/01/02 00:59:42;;;;;;;12.03;3.50;;;6.00;99.90;;;;;;4902320;29;20204;-50
2024/01/02 01:02:08;;;;;;;10.70;2.97;;;6.00;99.90;;;;;;4911907;29;20190;-52
2024/01/02 01:04:33;;;;;;;13.50;2.90;;;6.10;99.90;;;;;;4909956;29;20191;-53
2024/01/02 01:06:59;;;;;;;9.43;2.57;;;6.10;99.90;;;;;;4915492;29;20624;-51
2024/01/02 01:09:25;;;;;;;9.80;3.23;;;6.10;99.90;;;;;;4904320;29;20231;-49
2024/01/02 01:11:50;;;;;;;12.07;3.20;;;6.00;99.90;;;;;;4911249;29;20707;-50
2024/01/02 01:14:16;;;;;;;14.03;3.43;;;6.00;99.90;;;;;;4907985;29;20239;-54
2024/01/02 01:16:41;;;;;;;10.03;3.17;;;6.10;99.90;;;;;;4916127;29;20682;-52
2024/01/02 01:19:07;;;;;;;16.20;3.10;;;6.10;99.90;;;;;;4915193;29;20310;-52
2024/01/02 01:21:32;;;;;;;15.83;3.30;;;6.20;99.90;;;;;;4915476;29;20194;-50
2024/01/02 01:23:58;;;;;;;6.87;2.67;;;6.10;99.90;;;;;;4907255;29;20189;-56
2024/01/02 01:26:24;;;;;;;11.00;2.90;;;6.10;99.90;;;;;;4915566;29;20188;-51
2024/01/02 01:28:49;;;;;;;7.23;2.50;;;6.10;99.90;;;;;;4915341;29;20649;-51
2024/01/02 01:31:15;;;;;;;12.87;2.47;;;6.10;99.90;;;;;;4913094;29;20197;-52
2024/01/02 01:33:40;;;;;;;16.00;2.97;;;6.10;99.90;;;;;;4901014;29;20184;-56
2024/01/02 01:36:06;;;;;;;11.77;2.57;;;6.20;99.90;;;;;;4907537;29;20194;-53
2024/01/02 01:38:31;;;;;;;16.80;2.70;;;6.20;99.90;;;;;;4907491;29;20218;-50
2024/01/02 01:40:57;;;;;;;12.10;2.40;;;6.10;99.90;;;;;;4915037;29;20255;-51
2024/01/02 01:43:22;;;;;;;8.60;2.80;;;6.10;99.90;;;;;;4914482;29;20203;-55
2024/01/02 01:45:48;;;;;;;7.67;2.70;;;6.10;99.90;;;;;;4915170;29;20200;-54
2024/01/02 01:48:14;;;;;;;9.10;2.33;;;6.00;99.90;;;;;;4912378;29;20641;-53
2024/01/02 01:50:39;;;;;;;12.90;2.87;;;6.00;99.90;;;;;;4910141;29;20259;-55
2024/01/02 01:53:06;;;;;;;5.73;2.13;;;6.10;99.90;;;;;;4906490;29;20563;-50
2024/01/02 01:55:32;;;;;;;4.63;2.33;;;6.10;99.90;;;;;;4915282;29;20197;-51
2024/01/02 01:57:58;;;;;;;10.43;2.00;;;6.10;99.90;;;;;;4899328;29;20192;-57
2024/01/02 02:00:24;;;;;;;7.03;2.10;;;6.10;99.90;;;;;;4914648;29;20202;-52
2024/01/02 02:02:50;;;;;;;7.80;1.83;;;6.20;99.90;;;;;;4907189;29;20188;-50
2024/01/02 02:05:17;;;;;;;8.73;2.33;;;6.20;99.90;;;;;;4913989;29;20796;-49
2024/01/02 02:07:43;;;;;;;5.23;1.90;;;6.20;99.90;;;;;;4909995;29;20303;-56
2024/01/02 02:10:09;;;;;;;3.90;1.50;;;6.10;99.90;;;;;;4913101;29;20282;-57
2024/01/02 02:12:35;;;;;;;5.60;1.73;;;6.20;99.90;;;;;;4906510;29;20188;-53
2024/01/02 02:15:03;;;;;;;4.33;1.20;;;6.30;99.90;;;;;;4906110;29;20662;-53
2024/01/02 02:17:29;;;;;;;6.63;1.30;;;6.30;99.90;;;;;;4907806;29;20207;-56
2024/01/02 02:19:58;;;;;;;2.80;1.60;;;6.20;99.90;;;;;;4914499;29;20224;-54
2024/01/02 02:22:36;;;;;;;3.27;1.60;;;6.20;99.90;;;;;;4898832;29;20199;-50
2024/01/02 02:25:06;;;;;;;4.17;1.07;;;6.30;99.90;;;;;;4906070;29;20218;-52
2024/01/02 02:27:33;;;;;;;5.13;1.47;;;6.30;99.90;;;;;;4903505;29;20209;-51
2024/01/02 02:29:59;;;;;;;5.43;1.47;;;6.40;99.90;;;;;;4903312;29;20211;-53
2024/01/02 02:32:25;;;;;;;3.23;1.23;;;6.40;99.90;;;;;;4902899;29;20191;-50
2024/01/02 02:34:50;;;;;;;4.47;1.10;;;6.40;99.90;;;;;;4909933;29;20184;-50
2024/01/02 02:37:16;;;;;;;3.97;1.30;;;6.40;99.90;;;;;;4911685;29;20746;-52
2024/01/02 02:39:42;;;;;;;7.50;1.60;;;6.30;99.90;;;;;;4909251;29;20230;-54
2024/01/02 02:42:07;;;;;;;3.70;1.07;;;6.30;99.90;;;;;;4905794;29;20207;-54
2024/01/02 02:44:33;;;;;;;3.97;1.00;;;6.40;99.90;;;;;;4913964;29;20187;-52
2024/01/02 02:46:59;;;;;;;2.57;1.10;;;6.40;99.90;;;;;;4913942;29;20230;-51
2024/01/02 02:49:26;;;;;;;2.67;1.10;;;6.40;99.90;;;;;;4906511;29;20432;-50
2024/01/02 02:51:51;;;;;;;3.73;1.10;;;6.30;99.90;;;;;;4913703;29;20323;-50
2024/01/02 02:54:17;;;;;;;2.90;1.00;;;6.30;99.90;;;;;;4911541;29;20282;-52
2024/01/02 02:56:43;;;;;;;4.20;0.90;;;6.30;99.90;;;;;;4902129;29;20251;-52
2024/01/02 02:59:12;;;;;;;3.70;0.90;;;6.30;99.90;;;;;;4904511;29;20215;-53
2024/01/02 03:01:38;;;;;;;2.30;1.00;;;6.30;99.90;;;;;;4905086;29;20282;-55
2024/01/02 03:04:04;;;;;;;1.60;0.80;;;6.30;99.90;;;;;;4913331;29;20730;-55
2024/01/02 03:06:30;;;;;;;2.87;0.70;;;6.40;99.90;;;;;;4913859;29;20183;-54
2024/01/02 03:08:55;;;;;;;1.90;0.87;;;6.30;99.90;;;;;;4898745;29;20223;-54
2024/01/02 03:11:21;;;;;;;3.40;0.80;;;6.30;99.90;;;;;;4906233;29;20188;-56
2024/01/02 03:13:47;;;;;;;4.83;0.80;;;6.40;99.90;;;;;;4913383;29;20198;-52
2024/01/02 03:16:14;;;;;;;1.20;0.87;;;6.30;99.90;;;;;;4912018;29;20719;-51
2024/01/02 03:18:39;;;;;;;4.27;0.90;;;6.30;99.90;;;;;;4900605;29;20310;-51
2024/01/02 03:21:07;;;;;;;1.40;0.70;;;6.40;99.90;;;;;;4905925;29;20332;-55
2024/01/02 03:23:34;;;;;;;2.13;0.77;;;6.30;99.90;;;;;;4908892;29;20185;-51
2024/01/02 03:25:59;;;;;;;1.77;0.70;;;6.30;99.90;;;;;;4910835;29;20247;-52
2024/01/02 03:28:25;;;;;;;2.67;0.70;;;6.30;99.90;;;;;;4910232;29;20508;-52
2024/01/02 03:30:52;;;;;;;1.23;0.73;;;6.30;99.90;;;;;;4910259;29;20187;-52
2024/01/02 03:33:17;;;;;;;1.17;0.40;;;6.30;99.90;;;;;;4912797;29;20199;-51
2024/01/02 03:35:44;;;;;;;0.60;0.50;;;6.40;99.90;;;;;;4907881;29;20196;-53
2024/01/02 03:38:10;;;;;;;2.00;0.53;;;6.40;99.90;;;;;;4896690;29;20275;-50
2024/01/02 03:40:35;;;;;;;0.53;0.47;;;6.30;99.90;;;;;;4913610;29;20195;-54
2024/01/02 03:43:01;;;;;;;2.73;0.40;;;6.20;99.90;;;;;;4904933;29;20275;-51
2024/01/02 03:45:26;;;;;;;3.83;0.60;;;6.30;99.90;;;;;;4906488;29;20184;-54
2024/01/02 03:47:52;;;;;;;2.13;0.40;;;6.30;99.90;;;;;;4913602;29;20230;-52
2024/01/02 03:50:17;;;;;;;0.60;0.33;;;6.30;99.90;;;;;;4913260;29;20794;-50
2024/01/02 03:52:43;;;;;;;2.47;0.50;;;6.30;99.90;;;;;;4907058;29;20691;-53
2024/01/02 03:55:09;;;;;;;1.70;0.50;;;6.30;99.90;;;;;;4911450;29;20190;-57
2024/01/02 03:57:34;;;;;;;1.50;0.80;;;6.30;99.90;;;;;;4916008;29;20602;-52
2024/01/02 04:00:00;;;;;;;1.73;0.50;;;6.30;99.90;;;;;;4901424;29;20219;-50
2024/01/02 04:02:26;;;;;;;0.20;0.20;;;6.30;99.90;;;;;;4905421;29;20547;-54
2024/01/02 04:04:52;;;;;;;1.30;0.30;;;6.10;99.90;;;;;;4913041;29;20190;-51
2024/01/02 04:07:17;;;;;;;0.30;0.30;;;6.10;99.90;;;;;;4916475;29;20208;-55
2024/01/02 04:09:43;;;;;;;0.43;0.30;;;6.10;99.90;;;;;;4916869;29;20211;-58
2024/01/02 04:12:08;;;;;;;1.33;0.30;;;6.10;99.90;;;;;;4915806;29;20199;-57
2024/01/02 04:14:34;;;;;;;1.23;0.30;;;6.10;99.90;;;;;;4916565;29;20187;-52
2024/01/02 04:17:00;;;;;;;1.23;0.43;;;6.10;99.90;;;;;;4908792;29;20192;-53
2024/01/02 04:19:26;;;;;;;0.53;0.40;;;6.10;99.90;;;;;;4905410;29;20275;-50
2024/01/02 04:21:51;;;;;;;2.50;0.50;;;6.20;99.90;;;;;;4905186;29;20609;-54
2024/01/02 04:24:17;;;;;;;0.77;0.30;;;6.30;99.90;;;;;;4908001;29;20200;-54
2024/01/02 04:26:42;;;;;;;0.60;0.30;;;6.30;99.90;;;;;;4916489;29;20208;-56
2024/01/02 04:29:08;;;;;;;0.20;0.20;;;6.30;99.90;;;;;;4915879;29;20227;-55
2024/01/02 04:31:34;;;;;;;0.30;0.20;;;6.30;99.90;;;;;;4916268;29;20192;-51
2024/01/02 04:33:59;;;;;;;2.27;0.30;;;6.20;99.90;;;;;;4915685;29;20719;-57
2024/01/02 04:36:27;;;;;;;0.73;0.20;;;6.10;99.90;;;;;;4912952;29;20232;-50
2024/01/02 04:38:53;;;;;;;0.40;0.30;;;6.20;99.90;;;;;;4912370;29;20628;-51
2024/01/02 04:41:20;;;;;;;6.30;0.63;;;6.20;99.90;;;;;;4915897;29;20267;-51
2024/01/02 04:43:45;;;;;;;2.47;0.33;;;6.20;99.90;;;;;;4915595;29;20271;-54
2024/01/02 04:46:11;;;;;;;0.83;0.40;;;6.20;99.90;;;;;;4915953;29;20274;-54
2024/01/02 04:48:37;;;;;;;0.27;0.20;;;6.20;99.90;;;;;;4915969;29;20223;-50
2024/01/02 04:51:03;;;;;;;0.63;0.40;;;6.20;99.90;;;;;;4915454;29;20216;-53
2024/01/02 04:53:28;;;;;;;0.73;0.57;;;6.20;99.90;;;;;;4908526;29;20235;-53
2024/01/02 04:55:54;;;;;;;1.13;0.40;;;6.20;99.90;;;;;;4915989;29;20575;-54
2024/01/02 04:58:20;;;;;;;2.00;0.60;;;6.20;99.90;;;;;;4905452;29;20263;-56
2024/01/02 05:00:46;;;;;;;0.50;0.40;;;6.20;99.90;;;;;;4911174;29;20191;-51
2024/01/02 05:03:11;;;;;;;0.67;0.40;;;6.10;99.90;;;;;;4915214;29;20200;-52
2024/01/02 05:05:37;;;;;;;2.47;0.90;;;6.00;99.90;;;;;;4915799;29;20188;-53
2024/01/02 05:08:03;;;;;;;5.33;0.80;;;6.00;99.90;;;;;;4914876;29;20213;-51
2024/01/02 05:10:28;;;;;;;1.70;1.03;;;6.10;99.90;;;;;;4901140;29;20561;-54
2024/01/02 05:12:54;;;;;;;3.60;0.80;;;6.10;99.90;;;;;;4899150;29;20192;-54
2024/01/02 05:15:20;;;;;;;2.07;0.80;;;6.10;99.90;;;;;;4915238;29;20199;-51
2024/01/02 05:17:46;;;;;;;2.10;0.73;;;6.10;99.90;;;;;;4902176;29;20838;-51
2024/01/02 05:20:12;;;;;;;1.33;0.67;;;6.10;99.90;;;;;;4911560;29;20774;-52
2024/01/02 05:22:37;;;;;;;3.23;0.60;;;6.10;99.90;;;;;;4901822;29;20184;-51
2024/01/02 05:25:03;;;;;;;0.70;0.63;;;6.10;99.90;;;;;;4915281;29;20201;-50
2024/01/02 05:27:29;;;;;;;2.67;0.73;;;6.10;99.90;;;;;;4896926;29;20220;-51
2024/01/02 05:29:54;;;;;;;0.83;0.57;;;6.10;99.90;;;;;;4896930;29;20211;-55
2024/01/02 05:32:20;;;;;;;1.07;0.70;;;6.10;99.90;;;;;;4914098;29;20662;-50
2024/01/02 05:34:45;;;;;;;1.13;0.60;;;6.10;99.90;;;;;;4915397;29;20194;-50
2024/01/02 05:37:11;;;;;;;0.50;0.43;;;6.20;99.90;;;;;;4907753;29;20188;-52
2024/01/02 05:39:36;;;;;;;1.30;0.60;;;6.20;99.90;;;;;;4915662;29;20679;-55
2024/01/02 05:42:02;;;;;;;0.73;0.50;;;6.20;99.90;;;;;;4906430;29;20652;-51
2024/01/02 05:44:28;;;;;;;1.73;0.77;;;6.20;99.90;;;;;;4900434;29;20191;-52
2024/01/02 05:46:53;;;;;;;0.60;0.40;;;6.20;99.90;;;;;;4915830;29;20694;-53
2024/01/02 05:49:19;;;;;;;0.90;0.40;;;6.30;99.90;;;;;;4898074;29;20294;-55
2024/01/02 05:51:44;;;;;;;0.80;0.40;;;6.20;99.90;;;;;;4904029;29;20195;-50
2024/01/02 05:54:10;;;;;;;1.10;0.67;;;6.30;99.90;;;;;;4905137;29;20629;-53
2024/01/02 05:56:36;;;;;;;0.33;0.33;;;6.30;99.90;;;;;;4907203;29;20188;-51
2024/01/02 05:59:02;;;;;;;0.73;0.43;;;6.30;99.90;;;;;;4914290;29;20215;-51
2024/01/02 06:01:27;;;;;;;1.17;0.60;;;6.30;99.90;;;;;;4914676;29;20191;-50
2024/01/02 06:03:53;;;;;;;0.50;0.37;;;6.30;99.90;;;;;;4914179;29;20188;-57
2024/01/02 06:06:18;;;;;;;0.90;0.40;;;6.20;99.90;;;;;;4906871;29;20800;-50
2024/01/02 06:08:45;;;;;;;1.13;0.50;;;6.20;99.90;;;;;;4905012;29;20267;-52
2024/01/02 06:11:10;;;;;;;0.40;0.40;;;6.30;99.90;;;;;;4904801;29;20188;-50
2024/01/02 06:13:36;;;;;;;3.43;1.00;;;6.40;99.90;;;;;;4913923;29;20190;-55
2024/01/02 06:16:02;;;;;;;6.97;3.27;;;6.40;99.90;;;;;;4898932;29;20227;-54
2024/01/02 06:18:27;;;;;;;2.10;1.00;;;6.40;99.90;;;;;;4895894;29;20318;-56
2024/01/02 06:20:54;;;;;;;8.50;4.33;;;6.50;99.90;;;;;;4910158;29;20187;-56
2024/01/02 06:23:20;;;;;;;1.60;1.00;;;6.50;99.90;;;;;;4911201;29;20200;-52
2024/01/02 06:25:45;;;;;;;2.23;0.67;;;6.50;99.90;;;;;;4902010;29;20660;-50
2024/01/02 06:28:11;;;;;;;0.93;0.70;;;6.50;99.90;;;;;;4914074;29;20254;-49
2024/01/02 06:30:37;;;;;;;1.20;0.87;;;6.50;99.90;;;;;;4902071;29;20220;-51
2024/01/02 06:33:03;;;;;;;1.57;0.90;;;6.50;99.90;;;;;;4910566;29;20258;-51
2024/01/02 06:35:28;;;;;;;2.03;1.03;;;6.50;99.90;;;;;;4899392;29;20191;-51
2024/01/02 06:37:54;;;;;;;3.33;1.37;;;6.50;99.90;;;;;;4899581;29;20188;-53
2024/01/02 06:40:19;;;;;;;2.63;0.63;;;6.50;99.90;;;;;;4912628;29;20256;-50
2024/01/02 06:42:45;;;;;;;1.70;0.90;;;6.50;99.90;;;;;;4906329;29;20187;-49
2024/01/02 06:45:11;;;;;;;2.03;1.00;;;6.60;99.90;;;;;;4896246;29;20271;-51
2024/01/02 06:47:37;;;;;;;2.00;0.90;;;6.50;99.90;;;;;;4903154;29;20563;-51
2024/01/02 06:50:02;;;;;;;2.07;1.00;;;6.50;99.90;;;;;;4910064;29;20203;-49
2024/01/02 06:52:28;;;;;;;2.30;1.20;;;6.60;99.90;;;;;;4906467;29;20184;-51
2024/01/02 06:54:54;;;;;;;1.10;0.80;;;6.60;99.90;;;;;;4913908;29;20262;-56
2024/01/02 06:57:19;;;;;;;4.33;1.10;;;6.60;99.90;;;;;;4898620;29;20197;-50
2024/01/02 06:59:45;;;;;;;7.63;3.60;;;6.60;99.90;;;;;;4913892;29;20219;-49
2024/01/02 07:02:11;;;;;;;2.57;1.03;;;6.60;99.90;;;;;;4904552;29;20187;-51
2024/01/02 07:04:39;;;;;;;3.87;1.20;;;6.60;99.90;;;;;;4903203;29;20608;-52
2024/01/02 07:07:05;;;;;;;2.10;0.83;;;6.60;99.90;;;;;;4911125;29;20575;-51
2024/01/02 07:09:30;;;;;;;1.80;0.87;;;6.70;99.90;;;;;;4913715;29;20208;-52
2024/01/02 07:11:56;;;;;;;2.47;1.30;;;6.60;99.90;;;;;;4898684;29;20604;-50
2024/01/02 07:14:23;;;;;;;3.50;1.20;;;6.60;99.90;;;;;;4912927;29;20405;-49
2024/01/02 07:16:48;;;;;;;4.03;2.17;;;6.70;99.90;;;;;;4907777;29;20204;-56
2024/01/02 07:19:14;;;;;;;4.80;2.40;;;6.70;99.90;;;;;;4911824;29;20315;-49
2024/01/02 07:21:39;;;;;;;3.13;1.67;;;6.70;99.90;;;;;;4906062;29;20219;-50
2024/01/02 07:24:05;;;;;;;1.50;1.00;;;6.70;99.90;;;;;;4905140;29;20223;-53
2024/01/02 07:26:30;;;;;;;1.50;0.90;;;6.80;99.90;;;;;;4906215;29;20184;-50
2024/01/02 07:28:56;;;;;;;1.47;0.93;;;6.80;99.90;;;;;;4913608;29;20239;-49
2024/01/02 07:31:21;;;;;;;0.90;0.80;;;6.70;99.90;;;;;;4899225;29;20192;-51
2024/01/02 07:33:47;;;;;;;1.27;0.90;;;6.80;99.90;;;;;;4916605;29;20192;-50
2024/01/02 07:36:13;;;;;;;3.03;2.17;;;6.80;99.90;;;;;;4917189;29;20199;-56
2024/01/02 07:38:39;;;;;;;2.77;1.70;;;6.80;99.90;;;;;;4912244;29;20205;-50
2024/01/02 07:41:05;;;;;;;1.90;1.00;;;7.00;99.90;;;;;;4906634;29;20200;-55
2024/01/02 07:43:30;;;;;;;5.33;1.40;;;7.00;99.90;;;;;;4916848;29;20192;-49
2024/01/02 07:45:57;;;;;;;6.43;3.30;;;7.00;99.90;;;;;;4910240;29;20543;-50
2024/01/02 07:48:22;;;;;;;2.83;1.23;;;7.00;99.90;;;;;;4916516;29;20215;-53
2024/01/02 07:50:48;;;;;;;12.00;6.50;;;7.10;99.90;;;;;;4911231;29;20192;-55
2024/01/02 07:53:19;;;;;;;1.37;0.80;;;7.20;99.90;;;;;;4914661;29;20203;-52
2024/01/02 07:55:46;;;;;;;1.97;1.17;;;7.40;99.90;;;;;;4909634;29;20647;-52
2024/01/02 07:58:11;;;;;;;1.45;0.63;;;7.70;99.90;;;;;;4907725;29;20442;-50
2024/01/02 08:00:37;;;;;;;0.70;0.47;;;8.00;99.90;;;;;;4916004;29;20297;-53
2024/01/02 08:03:02;;;;;;;5.20;4.20;;;8.30;99.90;;;;;;4907461;29;20251;-52
2024/01/02 08:05:28;;;;;;;5.93;5.33;;;8.40;99.90;;;;;;4916278;29;20192;-63
2024/01/02 08:07:54;;;;;;;0.30;0.30;;;8.50;99.90;;;;;;4908449;29;20213;-53
2024/01/02 08:10:19;;;;;;;0.83;0.60;;;8.50;99.90;;;;;;4908208;29;20208;-54
2024/01/02 08:12:45;;;;;;;0.83;0.50;;;8.60;99.90;;;;;;4902294;29;20196;-51
2024/01/02 08:15:10;;;;;;;1.00;0.60;;;8.60;99.90;;;;;;4906357;29;20184;-49
2024/01/02 08:17:36;;;;;;;2.30;1.27;;;8.70;99.90;;;;;;4916073;29;20560;-50
2024/01/02 08:20:03;;;;;;;2.10;0.93;;;8.80;99.90;;;;;;4907923;29;20234;-53
2024/01/02 08:22:28;;;;;;;3.87;1.87;;;8.90;99.90;;;;;;4907926;29;20255;-52
2024/01/02 08:24:54;;;;;;;1.97;1.20;;;9.00;99.90;;;;;;4907926;29;20666;-50
2024/01/02 08:27:20;;;;;;;1.77;0.90;;;9.10;99.90;;;;;;4907184;29;20283;-52
2024/01/02 08:29:46;;;;;;;1.40;0.70;;;9.10;99.90;;;;;;4910162;29;20216;-50
2024/01/02 08:32:11;;;;;;;0.90;0.70;;;9.10;99.90;;;;;;4913428;29;20672;-53
2024/01/02 08:34:37;;;;;;;1.03;0.63;;;9.10;99.90;;;;;;4911272;29;20195;-50
2024/01/02 08:37:03;;;;;;;1.60;0.87;;;9.10;99.90;;;;;;4904734;29;20188;-56
2024/01/02 08:39:28;;;;;;;1.57;1.17;;;9.10;99.90;;;;;;4916084;29;20207;-55
2024/01/02 08:41:54;;;;;;;0.87;0.67;;;9.20;99.90;;;;;;4914729;29;20663;-54
2024/01/02 08:44:20;;;;;;;1.57;1.07;;;9.20;99.90;;;;;;4912901;29;20705;-56
2024/01/02 08:46:45;;;;;;;3.03;1.10;;;9.20;99.90;;;;;;4910206;29;20255;-58
2024/01/02 08:49:12;;;;;;;0.90;0.60;;;9.20;99.90;;;;;;4915400;29;20339;-56
2024/01/02 08:51:38;;;;;;;0.93;0.40;;;9.20;99.90;;;;;;4915338;29;20172;-53
2024/01/02 08:54:04;;;;;;;1.37;0.87;;;9.20;99.90;;;;;;4915031;29;20753;-58
2024/01/02 08:56:29;;;;;;;1.50;0.60;;;9.20;99.90;;;;;;4907965;29;20381;-58
2024/01/02 08:58:56;;;;;;;0.60;0.50;;;9.30;99.90;;;;;;4915419;29;20207;-57
2024/01/02 09:01:21;;;;;;;1.70;0.20;;;9.30;99.90;;;;;;4915184;29;20184;-58
2024/01/02 09:03:47;;;;;;;0.40;0.37;;;9.40;99.90;;;;;;4914778;29;20191;-54
2024/01/02 09:06:17;;;;;;;0.93;0.70;;;9.40;99.90;;;;;;4899714;29;20192;-53
2024/01/02 09:08:43;;;;;;;0.37;0.27;;;9.40;99.90;;;;;;4907691;29;20219;-58
2024/01/02 09:11:12;;;;;;;3.33;0.90;;;9.40;99.90;;;;;;4914046;29;20184;-58
2024/01/02 09:13:38;;;;;;;0.33;0.30;;;9.50;99.90;;;;;;4908089;29;20203;-57
2024/01/02 09:16:04;;;;;;;1.80;0.40;;;9.50;99.90;;;;;;4914712;29;20604;-54
2024/01/02 09:18:30;;;;;;;0.80;0.30;;;9.60;99.90;;;;;;4902623;29;20220;-57
2024/01/02 09:20:57;;;;;;;2.23;0.40;;;9.60;99.90;;;;;;4910803;29;20243;-56
2024/01/02 09:23:22;;;;;;;0.80;0.60;;;9.60;99.90;;;;;;4906668;29;20737;-55
2024/01/02 09:25:49;;;;;;;1.73;0.80;;;9.60;99.90;;;;;;4901261;29;20192;-55
2024/01/02 09:28:16;;;;;;;0.50;0.40;;;9.70;99.90;;;;;;4897723;29;20263;-55
2024/01/02 09:30:43;;;;;;;1.10;0.80;;;9.70;99.90;;;;;;4914869;29;20172;-57
2024/01/02 09:33:09;;;;;;;0.70;0.50;;;9.70;99.90;;;;;;4906270;29;20180;-54
2024/01/02 09:35:36;;;;;;;0.40;0.40;;;9.70;99.90;;;;;;4909022;29;20179;-55
2024/01/02 09:38:02;;;;;;;0.50;0.30;;;9.70;99.90;;;;;;4913099;29;20666;-53
2024/01/02 09:41:11;;;;;;;1.23;0.30;;;9.60;99.90;;;;;;4913689;29;20188;-54
2024/01/02 09:43:49;;;;;;;0.53;0.40;;;9.70;99.90;;;;;;4915017;29;20187;-54
2024/01/02 09:46:18;;;;;;;0.30;0.30;;;9.80;99.90;;;;;;4917686;29;20223;-54
2024/01/02 09:49:03;;;;;;;1.17;0.40;;;9.80;99.90;;;;;;4912565;29;20221;-55
2024/01/02 09:51:55;;;;;;;0.30;0.30;;;9.90;99.90;;;;;;4917916;29;20207;-52
2024/01/02 09:54:26;;;;;;;0.47;0.37;;;9.90;99.90;;;;;;4915501;29;20195;-51
2024/01/02 09:57:06;;;;;;;1.17;0.63;;;10.00;99.90;;;;;;4918532;29;20258;-54
2024/01/02 09:59:49;;;;;;;0.77;0.43;;;10.10;99.90;;;;;;4893762;29;20278;-51
2024/01/02 10:02:33;;;;;;;0.80;0.60;;;10.00;99.90;;;;;;4903836;29;20202;-50
2024/01/02 10:05:19;;;;;;;0.90;0.60;;;10.00;99.90;;;;;;4900171;29;20176;-52
2024/01/02 10:08:26;;;;;;;2.40;1.30;;;10.10;99.90;;;;;;4900665;29;20660;-50
2024/01/02 10:11:07;;;;;;;4.20;2.33;;;10.00;99.90;;;;;;4855496;29;20178;-52
2024/01/02 10:13:50;;;;;;;1.53;0.50;;;10.10;99.90;;;;;;4855258;29;20718;-51
2024/01/02 10:16:28;;;;;;;1.03;0.80;;;10.10;99.90;;;;;;4899939;29;20183;-53
2024/01/02 10:19:23;;;;;;;0.33;0.20;;;10.10;99.90;;;;;;4897157;29;20231;-53
2024/01/02 10:22:25;;;;;;;1.00;0.77;;;10.10;99.90;;;;;;4908118;29;20322;-51
2024/01/02 10:24:57;;;;;;;1.93;1.33;;;10.20;99.90;;;;;;4906391;29;20234;-51
2024/01/02 10:27:35;;;;;;;2.17;0.90;;;10.30;99.90;;;;;;4910758;29;20211;-52
2024/01/02 10:30:08;;;;;;;3.60;1.70;;;10.30;99.90;;;;;;4902666;29;20252;-50
2024/01/02 10:32:39;;;;;;;0.97;0.50;;;10.30;99.90;;;;;;4898288;29;20183;-56
2024/01/02 10:35:19;;;;;;;0.40;0.40;;;10.30;99.90;;;;;;4911480;29;20184;-51
2024/01/02 10:37:58;;;;;;;0.43;0.30;;;10.40;99.90;;;;;;4907883;29;20187;-51
2024/01/02 10:40:24;;;;;;;0.47;0.37;;;10.40;99.90;;;;;;4910580;29;20263;-56
2024/01/02 10:43:22;;;;;;;0.50;0.47;;;10.50;99.90;;;;;;4901894;29;20237;-52
2024/01/02 10:45:58;;;;;;;0.20;0.20;;;10.50;99.90;;;;;;4908254;29;20176;-54
2024/01/02 10:48:54;;;;;;;0.47;0.20;;;10.50;99.90;;;;;;4902980;29;20227;-54
2024/01/02 10:51:38;;;;;;;1.73;0.30;;;10.60;99.90;;;;;;4904563;29;20184;-56
2024/01/02 10:54:08;;;;;;;0.20;0.20;;;10.70;99.90;;;;;;4905112;29;20184;-53
2024/01/02 10:56:39;;;;;;;0.40;0.30;;;10.60;99.90;;;;;;4894855;29;20184;-50
2024/01/02 10:59:21;;;;;;;0.67;0.20;;;10.70;99.90;;;;;;4895141;29;20196;-51
2024/01/02 11:01:51;;;;;;;0.97;0.20;;;10.70;99.90;;;;;;4905229;29;20586;-50
2024/01/02 11:04:44;;;;;;;0.20;0.20;;;10.70;99.90;;;;;;4904907;29;20220;-51
2024/01/02 11:07:13;;;;;;;0.20;0.20;;;10.60;99.90;;;;;;4916928;29;20207;-51
2024/01/02 11:10:03;;;;;;;0.10;0.10;;;10.60;99.90;;;;;;4904102;29;20641;-51
2024/01/02 11:12:43;;;;;;;0.97;0.30;;;10.60;99.90;;;;;;4896782;29;20180;-53
2024/01/02 11:15:11;;;;;;;0.20;0.20;;;10.60;99.90;;;;;;4906419;29;20266;-54
2024/01/02 11:17:39;;;;;;;0.30;0.20;;;10.50;99.90;;;;;;4909239;29;20675;-51
2024/01/02 11:20:10;;;;;;;0.53;0.30;;;10.50;99.90;;;;;;4909088;29;20211;-53
2024/01/02 11:22:45;;;;;;;3.33;2.53;;;10.50;99.90;;;;;;4910828;29;20181;-51
2024/01/02 11:25:14;;;;;;;1.30;0.97;;;10.40;99.90;;;;;;4906552;29;20179;-49
2024/01/02 11:27:43;;;;;;;1.90;1.50;;;10.30;99.90;;;;;;4909223;29;20691;-51
2024/01/02 11:30:11;;;;;;;0.60;0.40;;;10.30;99.90;;;;;;4908764;29;20583;-54
2024/01/02 11:32:55;;;;;;;0.50;0.17;;;10.30;99.90;;;;;;4916056;29;20215;-50
2024/01/02 11:35:21;;;;;;;1.27;0.30;;;10.20;99.90;;;;;;4901375;29;20687;-54
2024/01/02 11:38:10;;;;;;;0.20;0.20;;;10.10;99.90;;;;;;4915613;29;20192;-52
2024/01/02 11:41:07;;;;;;;0.20;0.20;;;10.00;99.90;;;;;;4905686;29;20578;-52
2024/01/02 11:43:57;;;;;;;0.13;0.13;;;10.00;99.90;;;;;;4905172;29;20173;-51
2024/01/02 11:46:25;;;;;;;1.27;0.80;;;9.90;99.90;;;;;;4905639;29;20216;-56
2024/01/02 11:49:09;;;;;;;5.63;3.00;;;9.90;99.90;;;;;;4902492;29;20653;-49
2024/01/02 11:51:41;;;;;;;2.90;0.70;;;9.90;99.90;;;;;;4908722;29;20582;-53
2024/01/02 11:54:32;;;;;;;1.87;0.97;;;9.70;99.90;;;;;;4915974;29;20182;-49
2024/01/02 11:56:58;;;;;;;1.93;0.80;;;9.70;99.90;;;;;;4916023;29;20238;-52
2024/01/02 11:59:32;;;;;;;0.60;0.50;;;9.60;99.90;;;;;;4915918;29;20212;-54
2024/01/02 12:02:27;;;;;;;3.37;0.40;;;9.60;99.90;;;;;;4915909;29;20224;-52
2024/01/02 12:05:10;;;;;;;0.27;0.20;;;9.60;99.90;;;;;;4908064;29;20193;-50
2024/01/02 12:07:39;;;;;;;0.30;0.30;;;9.60;99.90;;;;;;4897379;29;20208;-51
2024/01/02 12:10:06;;;;;;;0.40;0.30;;;9.60;99.90;;;;;;4913628;29;20263;-54
2024/01/02 12:12:40;;;;;;;0.27;0.20;;;9.60;99.90;;;;;;4900572;29;20336;-52
2024/01/02 12:15:18;;;;;;;1.33;0.50;;;9.60;99.90;;;;;;4915737;29;20268;-54
2024/01/02 12:17:57;;;;;;;0.33;0.20;;;9.60;99.90;;;;;;4915228;29;20203;-52
2024/01/02 12:20:24;;;;;;;0.30;0.30;;;9.60;99.90;;;;;;4915645;29;20278;-50
2024/01/02 12:22:51;;;;;;;0.60;0.60;;;9.50;99.90;;;;;;4915148;29;20238;-52
2024/01/02 12:25:17;;;;;;;0.57;0.30;;;9.50;99.90;;;;;;4906605;29;20224;-56
2024/01/02 12:27:46;;;;;;;1.43;0.30;;;9.50;99.90;;;;;;4902575;29;20258;-53
2024/01/02 12:30:23;;;;;;;0.67;0.47;;;9.40;99.90;;;;;;4915219;29;20622;-53
2024/01/02 12:33:11;;;;;;;0.83;0.40;;;9.50;99.90;;;;;;4906653;29;20180;-51
2024/01/02 12:36:12;;;;;;;0.40;0.20;;;9.50;99.90;;;;;;4896947;29;20192;-51
2024/01/02 12:39:04;;;;;;;0.30;0.30;;;9.50;99.90;;;;;;4901134;29;20707;-53
2024/01/02 12:41:37;;;;;;;0.50;0.40;;;9.60;99.90;;;;;;4915796;29;20180;-52
2024/01/02 12:44:05;;;;;;;0.70;0.50;;;9.50;99.90;;;;;;4907612;29;20207;-54
2024/01/02 12:47:05;;;;;;;0.40;0.40;;;9.50;99.90;;;;;;4904619;29;20217;-52
2024/01/02 12:49:45;;;;;;;0.53;0.47;;;9.50;99.90;;;;;;4907575;29;20611;-51
2024/01/02 12:52:20;;;;;;;1.90;0.40;;;9.50;99.90;;;;;;4898309;29;20192;-55
2024/01/02 12:54:48;;;;;;;1.20;0.80;;;9.40;99.90;;;;;;4902177;29;20210;-51
2024/01/02 12:57:15;;;;;;;1.90;1.37;;;9.50;99.90;;;;;;4906269;29;20664;-53
2024/01/02 12:59:41;;;;;;;0.83;0.50;;;9.50;99.90;;;;;;4896478;29;20216;-55
2024/01/02 13:02:07;;;;;;;1.90;1.10;;;9.40;99.90;;;;;;4911330;29;20659;-55
2024/01/02 13:04:35;;;;;;;1.77;1.10;;;9.40;99.90;;;;;;4911521;29;20185;-56